Time;durP1;ratioP1;P1;durP2;ratioP2;P2;SDS_P1;SDS_P2;PMS_P1;PMS_P2;Temp;Humidity;BMP_temperature;BMP_pressure;BME280_temperature;BME280_humidity;BME280_pressure;Samples;Min_cycle;Max_cycle;Signal;HPM_P1;HPM_P2
2022/04/02 00:04:10;;;;;;;1.63;1.33;;;;;;;17.15;52.10;95335.03;10374135;28;20032;-24
2022/04/02 00:09:10;;;;;;;2.25;1.80;;;;;;;17.15;52.99;95332.50;10378443;28;20072;-24
2022/04/02 00:14:11;;;;;;;4.55;1.90;;;;;;;17.18;52.96;95322.31;10379270;28;20061;-24
2022/04/02 00:19:12;;;;;;;2.65;1.30;;;;;;;17.15;53.45;95332.50;10380139;28;20042;-23
2022/04/02 00:24:12;;;;;;;3.00;1.67;;;;;;;17.17;52.84;95335.84;10382291;28;20815;-23
2022/04/02 00:29:12;;;;;;;2.47;1.33;;;;;;;17.13;52.52;95334.19;10388517;28;20026;-24
2022/04/02 00:34:13;;;;;;;2.73;1.40;;;;;;;17.11;53.00;95339.31;10372144;28;20054;-23
2022/04/02 00:39:13;;;;;;;2.65;1.38;;;;;;;17.11;53.05;95328.34;10381103;28;20289;-23
2022/04/02 00:44:20;;;;;;;3.83;1.37;;;;;;;17.11;52.75;95331.72;10385842;28;20021;-24
2022/04/02 00:49:21;;;;;;;3.10;1.60;;;;;;;17.12;52.73;95320.75;10387221;28;20481;-23
2022/04/02 00:54:21;;;;;;;1.73;1.27;;;;;;;17.15;52.63;95328.25;10367653;28;20041;-23
2022/04/02 00:59:21;;;;;;;2.87;1.33;;;;;;;17.15;52.87;95327.44;10372142;28;20078;-23
2022/04/02 01:04:22;;;;;;;1.27;1.10;;;;;;;17.10;52.96;95329.22;10383998;28;20338;-22
2022/04/02 01:09:23;;;;;;;1.75;0.90;;;;;;;17.14;53.33;95330.84;10372364;28;20412;-23
2022/04/02 01:14:26;;;;;;;1.52;1.20;;;;;;;17.10;54.31;95324.16;10369827;28;20112;-23
2022/04/02 01:19:33;;;;;;;2.05;1.45;;;;;;;17.13;53.37;95339.25;10364731;28;20038;-22
2022/04/02 01:24:39;;;;;;;2.03;1.25;;;;;;;17.12;52.99;95338.44;10368349;28;20049;-23
2022/04/02 01:29:40;;;;;;;2.33;1.10;;;;;;;17.12;53.02;95337.59;10369317;28;20032;-22
2022/04/02 01:34:44;;;;;;;1.80;1.38;;;;;;;17.12;53.19;95340.13;10388986;28;20033;-24
2022/04/02 01:39:49;;;;;;;1.40;1.10;;;;;;;17.10;52.77;95339.31;10379458;28;20042;-23
2022/04/02 01:44:53;;;;;;;1.67;1.20;;;;;;;17.11;52.66;95340.97;10363848;28;20025;-22
2022/04/02 01:50:06;;;;;;;2.13;1.40;;;;;;;17.15;53.00;95340.09;10368088;28;20056;-23
2022/04/02 01:55:12;;;;;;;1.60;1.38;;;;;;;17.13;52.97;95340.09;10370462;28;20080;-22
2022/04/02 02:00:16;;;;;;;2.95;1.35;;;;;;;17.13;52.63;95345.16;10366738;28;20042;-24
2022/04/02 02:05:19;;;;;;;2.15;1.77;;;;;;;17.13;52.61;95342.63;10364354;28;20026;-23
2022/04/02 02:10:22;;;;;;;2.78;1.40;;;;;;;17.23;53.13;95333.22;10387274;28;20030;-23
2022/04/02 02:15:36;;;;;;;3.80;1.23;;;;;;;17.19;52.96;95342.53;10358716;28;20520;-22
2022/04/02 02:20:39;;;;;;;1.67;1.27;;;;;;;17.16;52.46;95341.75;10370665;28;20031;-22
2022/04/02 02:25:40;;;;;;;1.43;0.97;;;;;;;17.15;51.76;95352.72;10366346;28;20030;-22
2022/04/02 02:30:40;;;;;;;1.05;0.95;;;;;;;17.15;52.34;95342.63;10378046;28;20030;-22
2022/04/02 02:35:50;;;;;;;2.53;1.20;;;;;;;17.14;52.21;95340.94;10384477;28;20022;-23
2022/04/02 02:40:53;;;;;;;1.35;1.23;;;;;;;17.09;53.05;95342.72;10356291;28;20037;-22
2022/04/02 02:46:00;;;;;;;4.63;1.52;;;;;;;17.15;52.77;95348.50;10364723;28;20447;-23
2022/04/02 02:51:01;;;;;;;2.95;1.30;;;;;;;17.13;52.25;95345.16;10362914;28;20029;-24
2022/04/02 02:56:01;;;;;;;1.85;1.58;;;;;;;17.13;52.09;95355.28;10370434;28;20040;-22
2022/04/02 03:01:02;;;;;;;2.15;1.25;;;;;;;17.11;52.33;95354.47;10364654;28;20087;-23
2022/04/02 03:06:05;;;;;;;1.90;1.35;;;;;;;17.15;52.99;95360.31;10359563;28;20160;-23
2022/04/02 03:11:12;;;;;;;1.55;1.20;;;;;;;17.17;53.53;95356.06;10366628;28;20029;-23
2022/04/02 03:16:14;;;;;;;1.75;1.20;;;;;;;17.14;51.60;95353.59;10362219;28;20029;-24
2022/04/02 03:21:25;;;;;;;2.00;1.30;;;;;;;17.10;52.65;95359.53;10368202;28;20409;-23
2022/04/02 03:26:27;;;;;;;3.45;1.30;;;;;;;17.13;52.27;95351.91;10381017;28;20030;-23
2022/04/02 03:31:30;;;;;;;2.95;1.63;;;;;;;17.14;52.23;95363.72;10361500;28;20034;-23
2022/04/02 03:36:31;;;;;;;3.00;1.25;;;;;;;17.06;52.22;95357.94;10363350;28;20034;-23
2022/04/02 03:41:35;;;;;;;1.55;1.45;;;;;;;17.11;52.10;95361.22;10366755;28;20039;-23
2022/04/02 03:52:09;;;;;;;1.30;0.82;;;;;;;17.07;52.54;95365.47;10361943;28;20040;-23
2022/04/02 03:57:12;;;;;;;2.53;1.38;;;;;;;17.08;52.74;95368.84;10383661;28;20045;-23
2022/04/02 04:02:13;;;;;;;2.95;1.42;;;;;;;17.13;52.84;95369.59;10362141;28;20073;-22
2022/04/02 04:07:15;;;;;;;1.67;1.08;;;;;;;17.13;53.14;95375.50;10372585;28;20021;-23
2022/04/02 04:12:17;;;;;;;1.38;0.90;;;;;;;17.13;52.10;95374.66;10371267;28;20110;-23
2022/04/02 04:17:23;;;;;;;1.30;1.20;;;;;;;17.11;52.92;95373.84;10375457;28;20115;-22
2022/04/02 04:22:24;;;;;;;2.13;1.10;;;;;;;17.12;52.78;95383.09;10371379;28;20029;-23
2022/04/02 04:27:24;;;;;;;1.83;1.10;;;;;;;17.06;52.67;95396.69;10371801;28;20029;-22
2022/04/02 04:32:24;;;;;;;1.47;1.17;;;;;;;17.09;52.27;95393.28;10367311;28;20025;-22
2022/04/02 04:37:26;;;;;;;1.93;1.30;;;;;;;17.07;52.87;95400.88;10395658;28;20026;-23
2022/04/02 04:42:26;;;;;;;1.40;1.02;;;;;;;17.00;52.54;95394.25;10366722;28;20026;-24
2022/04/02 04:47:30;;;;;;;1.63;1.17;;;;;;;17.06;53.06;95403.44;10384964;28;20401;-23
2022/04/02 04:52:31;;;;;;;1.48;0.90;;;;;;;17.04;52.82;95405.16;10368540;28;20397;-23
2022/04/02 04:57:35;;;;;;;2.13;0.88;;;;;;;17.05;52.13;95416.91;10374611;28;20407;-23
2022/04/02 05:02:49;;;;;;;3.53;1.15;;;;;;;17.13;53.67;95415.13;10366325;28;20037;-24
2022/04/02 05:07:55;;;;;;;2.40;1.30;;;;;;;17.15;52.36;95426.88;10389530;28;20037;-23
2022/04/02 05:12:58;;;;;;;2.35;1.10;;;;;;;17.18;51.23;95431.06;10368096;28;20100;-23
2022/04/02 05:18:01;;;;;;;0.95;0.90;;;;;;;17.16;51.82;95431.06;10382782;28;20469;-23
2022/04/02 05:23:04;;;;;;;2.20;1.42;;;;;;;17.25;51.43;95425.06;10371608;28;20025;-24
2022/04/02 05:28:05;;;;;;;1.45;0.95;;;;;;;17.23;51.36;95441.97;10368405;28;20430;-23
2022/04/02 05:33:07;;;;;;;1.40;1.10;;;;;;;17.21;51.07;95438.59;10371045;28;20033;-22
2022/04/02 05:38:07;;;;;;;3.38;1.10;;;;;;;17.24;51.06;95446.16;10364351;28;20022;-23
2022/04/02 05:43:08;;;;;;;3.73;1.17;;;;;;;17.22;51.32;95453.75;10362732;28;20030;-24
2022/04/02 05:48:09;;;;;;;1.20;1.00;;;;;;;17.25;51.46;95461.28;10365583;28;20123;-22
2022/04/02 05:53:09;;;;;;;1.40;0.95;;;;;;;17.26;51.08;95467.19;10385301;28;20038;-23
2022/04/02 05:58:11;;;;;;;3.42;2.10;;;;;;;17.28;51.62;95471.38;10379701;28;20029;-22
2022/04/02 06:03:15;;;;;;;1.83;0.95;;;;;;;17.28;51.75;95483.16;10378670;28;20076;-22
2022/04/02 06:08:16;;;;;;;0.60;0.60;;;;;;;17.26;51.28;95482.38;10366132;28;20079;-22
2022/04/02 06:13:17;;;;;;;2.35;1.48;;;;;;;17.26;51.67;95484.91;10368143;28;20040;-23
2022/04/02 06:18:20;;;;;;;3.83;1.00;;;;;;;17.25;51.87;95495.88;10369904;28;20046;-24
2022/04/02 06:23:22;;;;;;;2.45;1.13;;;;;;;17.26;51.77;95500.06;10382722;28;20030;-24
2022/04/02 06:28:23;;;;;;;2.15;1.42;;;;;;;17.20;51.53;95508.59;10374006;28;20042;-25
2022/04/02 06:33:23;;;;;;;2.38;0.98;;;;;;;17.23;51.74;95507.72;10383970;28;20037;-23
2022/04/02 06:38:24;;;;;;;3.20;1.27;;;;;;;17.19;51.85;95516.19;10363671;28;20471;-24
2022/04/02 06:43:24;;;;;;;1.97;1.00;;;;;;;17.18;52.44;95522.94;10378599;28;20285;-23
2022/04/02 06:48:33;;;;;;;2.15;1.15;;;;;;;17.20;52.68;95526.28;10362498;28;20355;-24
2022/04/02 06:53:34;;;;;;;3.23;1.00;;;;;;;17.25;53.35;95533.81;10378864;28;20113;-24
2022/04/02 06:58:38;;;;;;;4.20;1.27;;;;;;;17.28;53.90;95542.19;10377959;28;20033;-24
2022/04/02 07:03:39;;;;;;;2.58;1.20;;;;;;;17.30;53.24;95549.75;10372705;28;20053;-24
2022/04/02 07:08:39;;;;;;;4.43;1.20;;;;;;;17.28;52.15;95556.53;10386346;28;20038;-24
2022/04/02 07:13:40;;;;;;;1.77;1.03;;;;;;;17.24;52.13;95560.78;10375058;28;20034;-22
2022/04/02 07:18:46;;;;;;;5.10;1.30;;;;;;;17.22;52.20;95571.78;10380634;28;20630;-24
2022/04/02 07:23:47;;;;;;;3.13;1.55;;;;;;;17.28;52.26;95579.28;10383454;28;20593;-24
2022/04/02 07:28:47;;;;;;;14.45;1.67;;;;;;;17.25;52.55;95586.91;10380898;28;20033;-24
2022/04/02 07:33:48;;;;;;;5.97;1.30;;;;;;;17.26;52.07;95591.13;10380210;28;20080;-24
2022/04/02 07:39:11;;;;;;;5.65;1.30;;;;;;;17.24;51.36;95608.84;10373220;28;20092;-23
2022/04/02 07:44:35;;;;;;;6.32;2.10;;;;;;;17.27;51.55;95615.56;10382641;28;20025;-24
2022/04/02 07:49:40;;;;;;;6.43;1.50;;;;;;;17.28;51.67;95617.22;10380196;28;20510;-24
2022/04/02 07:54:45;;;;;;;11.23;2.65;;;;;;;17.32;53.49;95616.34;10383250;28;20052;-24
2022/04/02 07:59:55;;;;;;;8.32;1.80;;;;;;;17.33;53.83;95620.53;10381255;28;20041;-24
2022/04/02 08:05:06;;;;;;;4.85;1.85;;;;;;;17.27;52.21;95631.59;10377926;28;20502;-23
2022/04/02 08:10:10;;;;;;;4.43;1.38;;;;;;;17.29;52.00;95634.06;10374912;28;20037;-23
2022/04/02 08:15:18;;;;;;;7.03;1.90;;;;;;;16.95;48.82;95637.84;10359601;28;20517;-24
2022/04/02 08:20:19;;;;;;;10.02;3.47;;;;;;;17.17;51.57;95639.28;10379436;28;20052;-24
2022/04/02 08:25:19;;;;;;;4.60;1.85;;;;;;;16.82;49.36;95647.28;10382022;28;20083;-24
2022/04/02 08:30:47;;;;;;;6.65;2.38;;;;;;;16.70;48.66;95653.31;10375731;28;20029;-24
2022/04/02 08:35:56;;;;;;;;;;;;;;;17.01;49.81;95663.94;10381151;28;20103;-24
2022/04/02 08:41:05;;;;;;;5.00;1.63;;;;;;;17.10;50.43;95670.56;10374887;28;20343;-24
2022/04/02 08:46:50;;;;;;;5.30;1.55;;;;;;;17.11;50.60;95670.56;10383857;28;20039;-24
2022/04/02 08:52:19;;;;;;;5.18;2.30;;;;;;;17.20;52.06;95682.25;10386722;28;20045;-23
2022/04/02 08:57:51;;;;;;;7.28;1.90;;;;;;;17.30;52.59;95688.84;10373916;28;20107;-23
2022/04/02 09:03:22;;;;;;;4.28;1.50;;;;;;;17.27;51.96;95699.03;10389179;28;20033;-24
2022/04/02 09:09:00;;;;;;;4.57;1.63;;;;;;;17.24;50.80;95711.72;10387670;28;20072;-23
2022/04/02 09:14:19;;;;;;;;;;;;;;;17.23;51.29;95715.09;10382819;28;20041;-24
2022/04/02 09:20:01;;;;;;;3.63;1.38;;;;;;;17.22;51.41;95713.41;10383790;28;19914;-23
2022/04/02 09:25:23;;;;;;;4.25;1.50;;;;;;;17.25;50.87;95726.03;10319087;28;20076;-24
2022/04/02 09:30:47;;;;;;;5.57;1.70;;;;;;;17.15;50.64;95727.00;10393290;28;20043;-23
2022/04/02 09:35:53;;;;;;;4.88;1.60;;;;;;;17.01;49.77;95731.34;10387369;28;20030;-23
2022/04/02 09:41:10;;;;;;;9.00;1.88;;;;;;;17.12;50.48;95727.84;10375715;28;20620;-23
2022/04/02 09:46:39;;;;;;;5.70;2.22;;;;;;;17.18;50.50;95732.88;10386558;28;20413;-25
2022/04/02 09:51:46;;;;;;;8.52;3.03;;;;;;;17.21;52.52;95739.56;10383096;28;20066;-24
2022/04/02 09:56:57;;;;;;;10.50;3.55;;;;;;;17.22;53.22;95741.22;10386373;28;20044;-24
2022/04/02 10:02:13;;;;;;;6.15;2.38;;;;;;;17.22;51.93;95749.66;10387407;28;20046;-24
2022/04/02 10:07:36;;;;;;;4.03;1.63;;;;;;;17.21;51.65;95753.06;10390055;28;20029;-23
2022/04/02 10:12:40;;;;;;;2.90;1.95;;;;;;;16.87;47.83;95766.03;10385392;28;20088;-23
2022/04/02 10:17:50;;;;;;;6.40;2.40;;;;;;;16.89;49.43;95761.81;10381360;28;20600;-24
2022/04/02 10:23:06;;;;;;;4.60;1.58;;;;;;;17.08;50.45;95765.84;10385183;28;20045;-23
2022/04/02 10:28:13;;;;;;;5.90;1.87;;;;;;;17.13;50.83;95761.56;10382772;28;20051;-24
2022/04/02 10:33:28;;;;;;;3.20;2.15;;;;;;;17.15;51.00;95772.53;10385892;28;20501;-24
2022/04/02 10:38:37;;;;;;;4.20;2.10;;;;;;;17.15;50.55;95772.53;10378346;28;20121;-24
2022/04/02 10:43:51;;;;;;;3.20;1.60;;;;;;;17.19;50.70;95782.59;10378222;28;20494;-24
2022/04/02 10:49:00;;;;;;;4.28;1.60;;;;;;;17.20;50.87;95789.31;10382947;28;20417;-24
2022/04/02 10:54:07;;;;;;;6.20;2.70;;;;;;;17.20;52.46;95786.78;10381924;28;20073;-23
2022/04/02 10:59:13;;;;;;;2.67;1.60;;;;;;;17.21;51.94;95787.59;10380380;28;20044;-24
2022/04/02 11:04:35;;;;;;;3.80;1.90;;;;;;;17.19;51.15;95794.38;10375062;28;20445;-25
2022/04/02 11:09:39;;;;;;;3.05;1.52;;;;;;;17.17;51.23;95798.63;10377261;28;20097;-24
2022/04/02 11:14:44;;;;;;;2.85;1.60;;;;;;;17.20;51.34;95803.63;10382896;28;20084;-23
2022/04/02 11:19:54;;;;;;;4.50;2.53;;;;;;;16.82;49.29;95815.78;10381694;28;20061;-23
2022/04/02 11:25:10;;;;;;;3.95;1.70;;;;;;;17.08;50.68;95816.41;10378011;28;20034;-23
2022/04/02 11:30:11;;;;;;;2.40;1.58;;;;;;;17.11;50.97;95826.50;10376808;28;20029;-24
2022/04/02 11:35:22;;;;;;;10.02;2.55;;;;;;;17.06;52.09;95825.72;10378985;28;20034;-22
2022/04/02 11:40:27;;;;;;;3.50;2.10;;;;;;;16.67;48.71;95844.53;10372141;28;20071;-22
2022/04/02 11:45:28;;;;;;;5.60;1.73;;;;;;;16.85;49.11;95838.50;10358504;28;20026;-23
2022/04/02 11:50:30;;;;;;;3.83;1.92;;;;;;;16.94;50.58;95833.38;10381212;28;20038;-24
2022/04/02 11:55:35;;;;;;;2.88;1.83;;;;;;;17.05;51.06;95847.63;10373861;28;20034;-24
2022/04/02 12:00:43;;;;;;;3.47;1.60;;;;;;;17.04;51.08;95843.41;10381083;28;20430;-24
2022/04/02 12:05:44;;;;;;;5.20;2.15;;;;;;;17.09;51.46;95846.72;10377919;28;20120;-22
2022/04/02 12:10:46;;;;;;;7.00;2.10;;;;;;;17.15;51.00;95845.84;10376408;28;20108;-22
2022/04/02 12:16:09;;;;;;;6.63;2.30;;;;;;;17.17;53.14;95856.78;10382102;28;20081;-22
2022/04/02 12:21:10;;;;;;;2.60;1.65;;;;;;;17.28;50.99;95865.13;10383987;28;20068;-23
2022/04/02 12:26:11;;;;;;;3.63;2.00;;;;;;;17.30;50.83;95865.94;10387553;28;20037;-23
2022/04/02 12:31:12;;;;;;;8.63;2.40;;;;;;;17.29;52.09;95877.75;10384401;28;20117;-23
2022/04/02 12:36:12;;;;;;;5.15;2.60;;;;;;;17.29;52.29;95877.75;10388783;28;20038;-23
2022/04/02 12:41:28;;;;;;;5.40;2.40;;;;;;;17.12;50.14;95888.84;10388490;28;20037;-22
2022/04/02 12:46:29;;;;;;;5.93;1.90;;;;;;;17.01;49.67;95900.75;10388017;28;20079;-22
2022/04/02 12:51:30;;;;;;;6.70;2.40;;;;;;;16.72;48.20;95909.38;10385174;28;20112;-23
2022/04/02 12:56:33;;;;;;;6.27;1.97;;;;;;;16.93;47.56;95907.56;10389191;28;20128;-23
2022/04/02 13:01:36;;;;;;;4.47;1.73;;;;;;;17.36;50.00;95919.03;10382595;28;20045;-23
2022/04/02 13:06:39;;;;;;;5.53;2.20;;;;;;;17.04;48.31;95929.38;10372468;28;20018;-23
2022/04/02 13:11:40;;;;;;;5.38;2.00;;;;;;;17.21;50.77;95929.25;10379664;28;20137;-22
2022/04/02 13:16:41;;;;;;;5.60;2.72;;;;;;;17.25;50.64;95931.75;10372305;28;20042;-24
2022/04/02 13:21:43;;;;;;;3.78;1.85;;;;;;;17.32;50.81;95942.66;10360435;28;20164;-23
2022/04/02 13:27:04;;;;;;;5.00;1.85;;;;;;;17.32;50.74;95940.97;10382118;28;20593;-24
2022/04/02 13:32:25;;;;;;;3.38;1.60;;;;;;;17.32;50.97;95946.03;10381178;28;20030;-23
2022/04/02 13:38:10;;;;;;;4.53;1.73;;;;;;;17.43;50.48;95954.44;10381237;28;20113;-24
2022/04/02 13:43:25;;;;;;;5.00;1.98;;;;;;;17.50;50.24;95952.69;10374289;28;20387;-23
2022/04/02 13:48:27;;;;;;;4.20;1.67;;;;;;;17.51;50.12;95961.94;10374142;28;20072;-22
2022/04/02 13:53:34;;;;;;;7.03;2.05;;;;;;;17.50;50.58;95958.56;10380398;28;20108;-22
2022/04/02 13:58:42;;;;;;;4.53;2.33;;;;;;;17.37;50.35;95964.59;10380973;28;20034;-22
2022/04/02 14:03:47;;;;;;;6.47;2.45;;;;;;;17.34;51.90;95976.38;10382030;28;20038;-21
2022/04/02 14:08:50;;;;;;;7.40;2.87;;;;;;;17.34;52.08;95982.25;10377889;28;20046;-22
2022/04/02 14:14:05;;;;;;;9.68;2.85;;;;;;;17.34;51.15;95981.44;10377370;28;20405;-23
2022/04/02 14:19:08;;;;;;;8.80;2.90;;;;;;;17.25;53.36;95963.81;10371530;28;20037;-22
2022/04/02 14:24:23;;;;;;;11.18;3.20;;;;;;;17.31;53.56;95981.47;10375595;28;20113;-23
2022/04/02 14:29:33;;;;;;;5.13;3.13;;;;;;;17.28;53.00;95991.59;10383333;28;20118;-22
2022/04/02 14:34:56;;;;;;;10.63;2.63;;;;;;;17.29;53.28;95999.19;10380538;28;20037;-24
2022/04/02 14:40:12;;;;;;;7.80;2.90;;;;;;;17.24;53.87;96000.88;10381190;28;20057;-22
2022/04/02 14:45:36;;;;;;;9.75;3.50;;;;;;;17.25;53.41;96006.81;10383923;28;20164;-22
2022/04/02 14:51:24;;;;;;;8.93;2.95;;;;;;;17.39;54.41;96025.28;10376174;28;20084;-22
2022/04/02 14:56:33;;;;;;;;;;;;;;;17.45;54.50;96025.25;10280407;28;20045;-23
2022/04/02 15:01:48;;;;;;;7.70;4.20;;;;;;;17.48;54.62;96031.13;10377665;28;20430;-23
2022/04/02 15:07:04;;;;;;;6.72;2.10;;;;;;;17.54;54.08;96037.81;10387171;28;20042;-25
2022/04/02 15:12:09;;;;;;;10.25;2.92;;;;;;;17.60;53.04;96042.84;10379630;28;20045;-23
2022/04/02 15:17:26;;;;;;;7.53;2.38;;;;;;;17.56;53.75;96053.88;10372796;28;20092;-23
2022/04/02 15:22:28;;;;;;;11.27;3.10;;;;;;;17.54;54.50;96058.06;10380054;28;20033;-23
2022/04/02 15:27:55;;;;;;;8.98;2.50;;;;;;;17.61;53.83;96069.84;10384877;28;20057;-23
2022/04/02 15:33:11;;;;;;;14.32;3.67;;;;;;;17.55;54.77;96069.88;10382934;28;20055;-22
2022/04/02 15:38:26;;;;;;;7.85;2.63;;;;;;;17.54;54.39;96080.84;10371359;28;20038;-22
2022/04/02 15:43:34;;;;;;;10.38;3.55;;;;;;;17.58;54.10;96069.88;10376496;28;20034;-21
2022/04/02 15:49:06;;;;;;;9.23;3.65;;;;;;;17.67;53.61;96097.66;10358615;28;20065;-23
2022/04/02 15:54:32;;;;;;;14.23;3.15;;;;;;;17.71;54.13;96105.22;10376612;28;20449;-23
2022/04/02 15:59:34;;;;;;;11.37;3.00;;;;;;;17.56;55.27;96112.91;10386063;28;20042;-22
2022/04/02 16:04:35;;;;;;;8.15;3.33;;;;;;;17.52;55.29;96105.34;10384567;28;20502;-25
2022/04/02 16:09:38;;;;;;;6.23;3.03;;;;;;;17.49;55.26;96110.41;10386629;28;20029;-23
2022/04/02 16:14:38;;;;;;;12.77;3.20;;;;;;;17.47;55.26;96119.69;10388694;28;20508;-23
2022/04/02 16:19:47;;;;;;;7.63;2.70;;;;;;;17.45;54.96;96132.38;10392475;28;20044;-22
2022/04/02 16:24:52;;;;;;;7.25;3.35;;;;;;;17.44;55.26;96135.75;10389458;28;20560;-23
2022/04/02 16:29:56;;;;;;;6.68;3.03;;;;;;;17.44;54.90;96145.03;10387013;28;20541;-23
2022/04/02 16:35:10;;;;;;;4.70;2.63;;;;;;;17.39;55.00;96140.00;10393553;28;20061;-22
2022/04/02 16:40:15;;;;;;;4.72;2.60;;;;;;;17.43;55.31;96161.06;10384414;28;20064;-23
2022/04/02 16:45:16;;;;;;;3.87;2.90;;;;;;;17.39;54.94;96156.84;10384987;28;20494;-24
2022/04/02 16:50:16;;;;;;;5.30;3.00;;;;;;;17.46;54.33;96164.41;10388411;28;20037;-23
2022/04/02 16:55:17;;;;;;;10.73;5.13;;;;;;;17.50;55.25;96176.19;10384097;28;20486;-22
2022/04/02 17:00:17;;;;;;;6.43;5.57;;;;;;;17.53;53.85;96185.47;10382846;28;20072;-23
2022/04/02 17:05:22;;;;;;;8.75;3.72;;;;;;;17.45;53.94;96199.84;10388117;28;20037;-22
2022/04/02 17:10:25;;;;;;;7.88;5.30;;;;;;;17.52;56.03;96211.63;10386216;28;20061;-23
2022/04/02 17:15:27;;;;;;;10.38;5.05;;;;;;;17.54;55.72;96217.50;10379755;28;20497;-23
2022/04/02 17:20:29;;;;;;;9.75;5.72;;;;;;;17.51;55.44;96225.13;10385541;28;20108;-24
2022/04/02 17:25:32;;;;;;;8.80;5.40;;;;;;;17.56;56.70;96231.84;10387468;28;20025;-24
2022/04/02 17:30:35;;;;;;;10.02;5.35;;;;;;;17.53;55.87;96238.63;10388888;28;20034;-23
2022/04/02 17:35:36;;;;;;;11.77;4.55;;;;;;;17.17;50.99;96246.28;10386631;28;20172;-23
2022/04/02 17:40:37;;;;;;;16.90;5.43;;;;;;;17.35;54.96;96242.03;10376881;28;20030;-23
2022/04/02 17:45:43;;;;;;;9.97;5.13;;;;;;;17.41;55.25;96253.84;10387154;28;20501;-23
2022/04/02 17:51:03;;;;;;;10.27;5.32;;;;;;;17.42;54.42;96273.25;10382082;28;20279;-23
2022/04/02 17:56:08;;;;;;;11.45;5.18;;;;;;;17.40;55.06;96280.84;10389366;28;20132;-23
2022/04/02 18:01:32;;;;;;;9.05;4.72;;;;;;;17.40;54.71;96290.94;10382813;28;20124;-23
2022/04/02 18:06:38;;;;;;;12.73;5.30;;;;;;;17.41;54.73;96297.69;10380839;28;20040;-24
2022/04/02 18:11:38;;;;;;;8.93;5.95;;;;;;;17.41;54.67;96302.75;10382813;28;20128;-24
2022/04/02 18:16:38;;;;;;;10.40;4.50;;;;;;;17.41;55.73;96307.81;10376182;28;20859;-24
2022/04/02 18:21:39;;;;;;;11.07;4.10;;;;;;;17.41;56.48;96309.53;10376725;28;20048;-24
2022/04/02 18:26:39;;;;;;;6.60;4.07;;;;;;;17.42;55.15;96319.63;10372171;28;20299;-24
2022/04/02 18:31:39;;;;;;;10.30;4.43;;;;;;;17.43;53.49;96320.47;10370818;28;20029;-24
2022/04/02 18:36:40;;;;;;;9.63;4.00;;;;;;;17.43;54.37;96330.59;10374208;28;20037;-24
2022/04/02 18:41:41;;;;;;;10.18;3.88;;;;;;;17.41;54.39;96348.31;10373937;28;20287;-23
2022/04/02 18:46:42;;;;;;;11.68;4.53;;;;;;;17.43;54.20;96355.91;10372589;28;20033;-24
2022/04/02 18:51:45;;;;;;;12.53;4.97;;;;;;;17.41;53.98;96360.94;10372639;28;20049;-24
2022/04/02 18:56:45;;;;;;;8.35;3.65;;;;;;;17.43;53.49;96366.03;10375740;28;20042;-25
2022/04/02 19:01:45;;;;;;;7.50;3.27;;;;;;;17.41;53.71;96372.78;10371044;28;20441;-25
2022/04/02 19:06:46;;;;;;;8.10;3.58;;;;;;;17.37;53.61;96371.09;10371857;28;20535;-23
2022/04/02 19:11:47;;;;;;;7.17;3.93;;;;;;;17.42;55.10;96397.25;10370829;28;20044;-24
2022/04/02 19:16:48;;;;;;;7.28;3.00;;;;;;;17.40;55.02;96402.28;10376443;28;20116;-24
2022/04/02 19:21:48;;;;;;;6.17;3.20;;;;;;;17.44;52.45;96403.13;10386232;28;20034;-25
2022/04/02 19:26:48;;;;;;;6.17;2.87;;;;;;;17.44;52.78;96406.53;10383798;28;20091;-24
2022/04/02 19:31:49;;;;;;;5.30;3.07;;;;;;;17.44;53.33;96410.72;10385746;28;20046;-26
2022/04/02 19:36:49;;;;;;;7.07;3.78;;;;;;;17.42;53.04;96415.78;10373956;28;20291;-23
2022/04/02 19:41:50;;;;;;;6.37;3.20;;;;;;;17.41;53.50;96424.22;10373798;28;20033;-23
2022/04/02 19:46:50;;;;;;;6.13;3.27;;;;;;;17.36;52.63;96420.00;10382488;28;20037;-24
2022/04/02 19:51:51;;;;;;;4.22;2.90;;;;;;;17.43;53.82;96426.75;10375832;28;20353;-23
2022/04/02 19:56:51;;;;;;;7.37;2.77;;;;;;;17.43;52.73;96432.69;10381434;28;20360;-24
2022/04/02 20:01:52;;;;;;;3.47;2.72;;;;;;;17.40;54.63;96441.97;10386293;28;20491;-23
2022/04/02 20:06:52;;;;;;;6.43;3.00;;;;;;;17.39;54.32;96441.09;10378486;28;20153;-24
2022/04/02 20:11:52;;;;;;;3.83;2.47;;;;;;;17.43;52.85;96444.47;10380497;28;20284;-23
2022/04/02 20:16:54;;;;;;;7.57;3.85;;;;;;;17.42;53.41;96442.78;10384368;28;20038;-23
2022/04/02 20:21:54;;;;;;;4.07;2.85;;;;;;;17.35;53.10;96438.53;10378801;28;20029;-24
2022/04/02 20:26:55;;;;;;;3.60;2.22;;;;;;;17.37;53.10;96447.84;10382775;28;20034;-24
2022/04/02 20:31:55;;;;;;;4.03;2.50;;;;;;;17.44;52.72;96453.75;10380415;28;20033;-25
2022/04/02 20:36:56;;;;;;;5.00;2.50;;;;;;;17.42;52.45;96455.44;10374759;28;20300;-24
2022/04/02 20:41:57;;;;;;;4.10;2.67;;;;;;;17.41;53.28;96461.34;10376202;28;20030;-24
2022/04/02 20:46:57;;;;;;;4.18;2.67;;;;;;;17.43;52.40;96463.03;10389993;28;20399;-23
2022/04/02 20:51:58;;;;;;;4.68;2.35;;;;;;;17.40;54.65;96467.25;10384195;28;20041;-24
2022/04/02 20:56:59;;;;;;;3.63;2.42;;;;;;;17.39;54.23;96468.06;10376898;28;20480;-25
2022/04/02 21:01:59;;;;;;;5.78;2.30;;;;;;;17.40;53.18;96469.78;10376055;28;20041;-25
2022/04/02 21:07:00;;;;;;;3.00;2.20;;;;;;;17.42;53.04;96480.75;10389601;28;20033;-23
2022/04/02 21:12:00;;;;;;;4.10;1.97;;;;;;;17.42;53.07;96483.28;10385768;28;20401;-25
2022/04/02 21:17:01;;;;;;;5.80;2.50;;;;;;;17.40;53.07;96488.31;10380725;28;20171;-23
2022/04/02 21:22:03;;;;;;;2.97;2.30;;;;;;;17.33;52.75;96480.72;10384254;28;20026;-24
2022/04/02 21:27:04;;;;;;;4.00;2.08;;;;;;;17.40;53.24;96495.09;10382950;28;20117;-23
2022/04/02 21:32:04;;;;;;;3.70;2.40;;;;;;;17.41;53.66;96500.13;10387808;28;20035;-24
2022/04/02 21:37:05;;;;;;;6.05;2.28;;;;;;;17.39;53.11;96504.34;10387762;28;20041;-23
2022/04/02 21:42:06;;;;;;;3.17;2.63;;;;;;;17.38;53.68;96504.34;10380451;28;20075;-23
2022/04/02 21:47:06;;;;;;;3.53;2.20;;;;;;;17.36;54.63;96511.09;10387380;28;20277;-24
2022/04/02 21:52:07;;;;;;;8.57;2.60;;;;;;;17.34;54.42;96512.75;10388936;28;20133;-24
2022/04/02 21:57:07;;;;;;;5.80;2.30;;;;;;;17.36;54.26;96511.09;10392092;28;20464;-24
2022/04/02 22:02:13;;;;;;;3.80;2.40;;;;;;;17.36;53.41;96511.97;10386399;28;20280;-23
2022/04/02 22:07:15;;;;;;;3.10;2.30;;;;;;;17.35;52.89;96514.44;10391224;28;20079;-24
2022/04/02 22:12:15;;;;;;;5.40;2.53;;;;;;;17.36;53.73;96523.75;10387813;28;20033;-24
2022/04/02 22:17:15;;;;;;;6.47;2.42;;;;;;;17.34;52.10;96522.88;10391131;28;20026;-23
2022/04/02 22:22:17;;;;;;;3.50;2.23;;;;;;;17.34;53.87;96525.41;10387693;28;20060;-24
2022/04/02 22:27:17;;;;;;;5.45;2.00;;;;;;;17.34;53.73;96525.41;10395714;28;20276;-23
2022/04/02 22:32:17;;;;;;;3.03;2.03;;;;;;;17.33;53.01;96522.03;10392918;28;20038;-23
2022/04/02 22:37:18;;;;;;;4.27;1.90;;;;;;;17.33;52.37;96529.63;10377672;28;20289;-23
2022/04/02 22:42:18;;;;;;;4.57;2.30;;;;;;;17.35;54.27;96534.69;10377966;28;20037;-23
2022/04/02 22:47:21;;;;;;;3.70;2.22;;;;;;;17.35;54.59;96537.22;10385640;28;20644;-24
2022/04/02 22:52:22;;;;;;;2.55;1.88;;;;;;;17.35;53.80;96534.69;10386457;28;20433;-24
2022/04/02 22:57:22;;;;;;;4.65;1.95;;;;;;;17.35;52.66;96538.06;10391610;28;20033;-23
2022/04/02 23:02:28;;;;;;;3.83;1.70;;;;;;;17.36;53.47;96544.00;10386000;28;20044;-25
2022/04/02 23:07:28;;;;;;;3.10;2.30;;;;;;;17.35;53.32;96543.13;10389651;28;20026;-25
2022/04/02 23:12:29;;;;;;;2.97;2.00;;;;;;;17.35;52.58;96539.75;10384250;28;20280;-23
2022/04/02 23:17:30;;;;;;;3.47;2.08;;;;;;;17.35;52.02;96539.75;10382403;28;20096;-23
2022/04/02 23:22:31;;;;;;;2.78;1.90;;;;;;;17.33;52.06;96542.25;10390028;28;20072;-23
2022/04/02 23:27:31;;;;;;;4.40;1.80;;;;;;;17.32;52.83;96544.81;10373609;28;20037;-25
2022/04/02 23:32:32;;;;;;;3.50;1.80;;;;;;;17.33;52.44;96549.84;10388135;28;20036;-24
2022/04/02 23:37:33;;;;;;;3.63;1.88;;;;;;;17.33;52.92;96547.31;10376217;28;20715;-24
2022/04/02 23:42:33;;;;;;;2.50;2.00;;;;;;;17.34;54.28;96553.25;10376981;28;20064;-24
2022/04/02 23:47:33;;;;;;;2.03;1.50;;;;;;;17.35;54.00;96554.94;10378714;28;20378;-23